createdAt,value
2022-12-25T00:01:13.110Z,98446.94
2022-12-25T00:02:16.150Z,98451.28
2022-12-25T00:03:19.227Z,98454.19
2022-12-25T00:04:22.181Z,98447.44
2022-12-25T00:05:25.584Z,98452.75
2022-12-25T00:06:28.675Z,98458.59
2022-12-25T00:07:31.865Z,98455.28
2022-12-25T00:08:35.034Z,98462.78
2022-12-25T00:09:37.945Z,98466.12
2022-12-25T00:10:45.363Z,98462.84
2022-12-25T00:11:48.620Z,98453.19
2022-12-25T00:12:51.675Z,98459.91
2022-12-25T00:13:54.807Z,98459.22
2022-12-25T00:14:57.680Z,98454.69
2022-12-25T00:16:05.257Z,98458.75
2022-12-25T00:17:08.337Z,98471.72
2022-12-25T00:18:11.405Z,98463.88
2022-12-25T00:19:14.282Z,98475.75
2022-12-25T00:20:17.383Z,98467.94
2022-12-25T00:21:21.925Z,98480.56
2022-12-25T00:22:24.978Z,98479.09
2022-12-25T00:23:28.988Z,98479.28
2022-12-25T00:24:32.205Z,98482.94
2022-12-25T00:25:35.509Z,98492.25
2022-12-25T00:26:39.656Z,98488.59
2022-12-25T00:27:42.908Z,98493.53
2022-12-25T00:28:46.231Z,98493.72
2022-12-25T00:29:49.386Z,98491.72
2022-12-25T00:30:53.067Z,98494.09
2022-12-25T00:31:56.391Z,98497.19
2022-12-25T00:32:59.638Z,98497.53
2022-12-25T00:34:02.783Z,98501.91
2022-12-25T00:35:07.833Z,98498.66
2022-12-25T00:36:12.389Z,98499.41
2022-12-25T00:37:18.837Z,98499.56
2022-12-25T00:38:22.669Z,98500.13
2022-12-25T00:39:27.835Z,98499.22
2022-12-25T00:40:31.160Z,98499.94
2022-12-25T00:41:52.922Z,98488.47
2022-12-25T00:42:56.189Z,98500.47
2022-12-25T00:43:59.266Z,98496.50
2022-12-25T00:45:02.875Z,98498.66
2022-12-25T00:46:07.531Z,98501.22
2022-12-25T00:47:10.753Z,98503.22
2022-12-25T00:48:17.071Z,98504.47
2022-12-25T00:49:22.904Z,98508.16
2022-12-25T00:50:26.472Z,98513.78
2022-12-25T00:51:29.718Z,98522.87
2022-12-25T00:52:33.321Z,98529.25
2022-12-25T00:53:36.629Z,98530.31
2022-12-25T00:54:39.905Z,98533.06
2022-12-25T00:55:46.032Z,98531.59
2022-12-25T00:56:49.272Z,98532.16
2022-12-25T00:57:52.467Z,98534.88
2022-12-25T00:58:55.988Z,98529.25
2022-12-25T00:59:59.193Z,98522.16
2022-12-25T01:01:03.247Z,98520.69
2022-12-25T01:02:24.954Z,98522.50
2022-12-25T01:03:28.925Z,98514.69
2022-12-25T01:04:32.099Z,98509.41
2022-12-25T01:05:35.367Z,98519.78
2022-12-25T01:06:39.085Z,98524.72
2022-12-25T01:07:42.517Z,98523.78
2022-12-25T01:09:04.461Z,98525.44
2022-12-25T01:10:23.242Z,98529.25
2022-12-25T01:11:27.681Z,98535.97
2022-12-25T01:12:33.063Z,98533.25
2022-12-25T01:13:37.629Z,98537.97
2022-12-25T01:14:40.786Z,98537.25
2022-12-25T01:15:44.106Z,98539.59
2022-12-25T01:16:47.459Z,98541.62
2022-12-25T01:17:50.868Z,98536.69
2022-12-25T01:18:54.076Z,98537.97
2022-12-25T01:19:57.277Z,98536.16
2022-12-25T01:21:07.705Z,98542.50
2022-12-25T01:22:11.949Z,98539.06
2022-12-25T01:23:15.209Z,98535.44
2022-12-25T01:24:18.474Z,98536.50
2022-12-25T01:25:21.827Z,98545.25
2022-12-25T01:26:27.220Z,98535.94
2022-12-25T01:27:31.754Z,98539.41
2022-12-25T01:28:35.582Z,98535.22
2022-12-25T01:29:39.176Z,98536.16
2022-12-25T01:30:49.094Z,98535.97
2022-12-25T01:31:52.388Z,98533.78
2022-12-25T01:32:55.633Z,98538.50
2022-12-25T01:33:59.053Z,98537.59
2022-12-25T01:35:02.290Z,98537.94
2022-12-25T01:36:13.829Z,98542.84
2022-12-25T01:37:17.031Z,98545.22
2022-12-25T01:38:20.106Z,98552.66
2022-12-25T01:39:23.510Z,98551.94
2022-12-25T01:40:26.753Z,98556.50
2022-12-25T01:41:30.081Z,98557.56
2022-12-25T01:42:33.390Z,98553.75
2022-12-25T01:43:36.721Z,98549.94
2022-12-25T01:44:39.871Z,98556.12
2022-12-25T01:45:44.782Z,98543.03
2022-12-25T01:46:48.035Z,98548.16
2022-12-25T01:47:52.067Z,98541.94
2022-12-25T01:48:58.213Z,98546.47
2022-12-25T01:50:01.386Z,98549.56
2022-12-25T01:51:11.972Z,98552.28
2022-12-25T01:52:25.451Z,98545.00
2022-12-25T01:53:29.250Z,98545.19
2022-12-25T01:54:38.533Z,98547.00
2022-12-25T01:55:44.539Z,98548.28
2022-12-25T01:56:50.504Z,98544.09
2022-12-25T01:57:54.058Z,98543.38
2022-12-25T01:58:58.770Z,98546.81
2022-12-25T02:00:02.770Z,98544.09
2022-12-25T02:01:08.683Z,98541.41
2022-12-25T02:02:12.684Z,98540.31
2022-12-25T02:03:16.154Z,98541.38
2022-12-25T02:04:25.449Z,98543.75
2022-12-25T02:05:32.139Z,98545.22
2022-12-25T02:06:36.215Z,98536.13
2022-12-25T02:07:43.884Z,98540.13
2022-12-25T02:08:47.288Z,98545.19
2022-12-25T02:09:51.804Z,98546.25
2022-12-25T02:10:55.088Z,98541.34
2022-12-25T02:11:58.499Z,98544.44
2022-12-25T02:13:02.496Z,98543.19
2022-12-25T02:14:05.692Z,98540.25
2022-12-25T02:15:16.038Z,98543.72
2022-12-25T02:16:23.309Z,98543.19
2022-12-25T02:17:54.119Z,98551.16
2022-12-25T02:19:03.709Z,98551.72
2022-12-25T02:20:34.443Z,98548.47
2022-12-25T02:21:58.712Z,98537.56
2022-12-25T02:23:14.871Z,98540.28
2022-12-25T02:24:50.547Z,98533.94
2022-12-25T02:26:30.316Z,98544.47
2022-12-25T02:28:07.553Z,98541.91
2022-12-25T02:29:24.396Z,98539.19
2022-12-25T02:30:33.162Z,98550.44
2022-12-25T02:31:49.130Z,98547.75
2022-12-25T02:33:19.866Z,98545.59
2022-12-25T02:34:31.028Z,98547.41
2022-12-25T02:35:34.156Z,98555.94
2022-12-25T02:36:54.236Z,98564.47
2022-12-25T02:38:00.123Z,98566.81
2022-12-25T02:39:28.161Z,98558.09
2022-12-25T02:40:39.195Z,98551.22
2022-12-25T02:41:47.391Z,98549.94
2022-12-25T02:43:13.309Z,98553.94
2022-12-25T02:44:39.669Z,98563.22
2022-12-25T02:46:17.950Z,98572.31
2022-12-25T02:47:45.912Z,98571.59
2022-12-25T02:49:12.914Z,98568.66
2022-12-25T02:50:36.465Z,98563.41
2022-12-25T02:52:02.270Z,98570.69
2022-12-25T02:53:27.829Z,98568.31
2022-12-25T02:55:13.753Z,98568.50
2022-12-25T02:56:37.263Z,98568.84
2022-12-25T02:58:07.188Z,98560.66
2022-12-25T02:59:29.950Z,98571.38
2022-12-25T03:00:57.128Z,98573.78
2022-12-25T03:02:19.733Z,98588.34
2022-12-25T03:03:44.480Z,98583.94
2022-12-25T03:05:09.426Z,98580.50
2022-12-25T03:06:32.248Z,98578.88
2022-12-25T03:07:41.444Z,98583.41
2022-12-25T03:08:48.913Z,98579.41
2022-12-25T03:10:23.835Z,98584.69
2022-12-25T03:11:33.174Z,98591.97
2022-12-25T03:12:41.696Z,98591.75
2022-12-25T03:13:48.100Z,98596.50
2022-12-25T03:15:09.995Z,98593.97
2022-12-25T03:16:31.443Z,98603.41
2022-12-25T03:17:35.697Z,98592.47
2022-12-25T03:18:39.158Z,98594.31
2022-12-25T03:20:02.092Z,98596.88
2022-12-25T03:21:27.481Z,98583.56
2022-12-25T03:22:51.793Z,98588.12
2022-12-25T03:24:18.129Z,98595.94
2022-12-25T03:25:40.837Z,98589.41
2022-12-25T03:26:56.747Z,98598.31
2022-12-25T03:28:00.342Z,98592.47
2022-12-25T03:29:04.884Z,98591.75
2022-12-25T03:30:27.803Z,98585.03
2022-12-25T03:31:45.927Z,98596.81
2022-12-25T03:33:03.585Z,98604.66
2022-12-25T03:34:37.300Z,98608.44
2022-12-25T03:36:08.023Z,98605.72
2022-12-25T03:38:05.559Z,98611.38
2022-12-25T03:39:42.201Z,98616.47
2022-12-25T03:41:26.458Z,98607.00
2022-12-25T03:42:54.908Z,98616.84
2022-12-25T03:44:43.623Z,98623.19
2022-12-25T03:46:14.311Z,98625.03
2022-12-25T03:47:35.393Z,98623.91
2022-12-25T03:49:02.342Z,98624.81
2022-12-25T03:50:49.310Z,98623.69
2022-12-25T03:52:13.176Z,98627.53
2022-12-25T03:53:44.679Z,98627.31
2022-12-25T03:55:09.633Z,98628.28
2022-12-25T03:56:38.784Z,98629.53
2022-12-25T03:58:00.741Z,98628.41
2022-12-25T03:59:24.154Z,98635.53
2022-12-25T04:00:46.447Z,98629.37
2022-12-25T04:02:09.138Z,98629.37
2022-12-25T04:03:30.864Z,98630.59
2022-12-25T04:04:52.536Z,98628.37
2022-12-25T04:06:34.147Z,98627.63
2022-12-25T04:07:56.215Z,98624.59
2022-12-25T04:09:17.604Z,98627.09
2022-12-25T04:10:39.493Z,98626.91
2022-12-25T04:12:03.040Z,98630.34
2022-12-25T04:13:25.481Z,98625.44
2022-12-25T04:14:46.967Z,98623.84
2022-12-25T04:16:10.974Z,98624.28
2022-12-25T04:17:32.912Z,98623.00
2022-12-25T04:18:54.786Z,98619.19
2022-12-25T04:20:16.432Z,98619.94
2022-12-25T04:21:38.445Z,98624.66
2022-12-25T04:23:00.448Z,98628.16
2022-12-25T04:24:22.193Z,98632.34
2022-12-25T04:25:43.968Z,98629.31
2022-12-25T04:27:05.742Z,98632.34
2022-12-25T04:28:27.679Z,98633.19
2022-12-25T04:29:49.596Z,98637.81
2022-12-25T04:31:11.426Z,98645.25
2022-12-25T04:32:33.099Z,98635.41
2022-12-25T04:33:54.878Z,98639.94
2022-12-25T04:35:16.908Z,98641.94
2022-12-25T04:36:27.865Z,98639.94
2022-12-25T04:37:35.175Z,98631.38
2022-12-25T04:38:39.701Z,98630.09
2022-12-25T04:39:42.974Z,98625.56
2022-12-25T04:40:46.272Z,98626.59
2022-12-25T04:41:49.437Z,98618.38
2022-12-25T04:42:53.214Z,98622.50
2022-12-25T04:43:56.442Z,98619.78
2022-12-25T04:44:59.620Z,98618.19
2022-12-25T04:46:08.159Z,98618.91
2022-12-25T04:47:13.182Z,98618.00
2022-12-25T04:48:16.304Z,98609.06
2022-12-25T04:49:19.434Z,98616.03
2022-12-25T04:50:22.705Z,98619.28
2022-12-25T04:51:30.930Z,98624.38
2022-12-25T04:52:40.225Z,98626.16
2022-12-25T04:53:44.378Z,98622.91
2022-12-25T04:54:47.528Z,98619.03
2022-12-25T04:55:50.783Z,98619.66
2022-12-25T04:56:54.021Z,98632.56
2022-12-25T04:57:57.231Z,98633.19
2022-12-25T04:59:00.344Z,98634.09
2022-12-25T05:00:04.459Z,98629.72
2022-12-25T05:01:08.233Z,98642.94
2022-12-25T05:02:13.124Z,98633.66
2022-12-25T05:03:16.489Z,98641.50
2022-12-25T05:04:21.079Z,98635.13
2022-12-25T05:05:24.468Z,98634.38
2022-12-25T05:06:28.274Z,98634.19
2022-12-25T05:07:31.433Z,98626.59
2022-12-25T05:08:39.072Z,98627.00
2022-12-25T05:09:42.146Z,98630.41
2022-12-25T05:10:45.311Z,98635.06
2022-12-25T05:11:48.525Z,98640.66
2022-12-25T05:12:51.747Z,98643.75
2022-12-25T05:13:55.144Z,98640.81
2022-12-25T05:14:58.525Z,98638.63
2022-12-25T05:16:04.828Z,98644.63
2022-12-25T05:17:08.538Z,98641.16
2022-12-25T05:18:12.012Z,98637.34
2022-12-25T05:19:15.156Z,98645.53
2022-12-25T05:20:18.316Z,98646.81
2022-12-25T05:21:21.631Z,98645.00
2022-12-25T05:22:24.820Z,98643.34
2022-12-25T05:23:28.023Z,98641.53
2022-12-25T05:24:32.130Z,98640.62
2022-12-25T05:25:38.680Z,98644.06
2022-12-25T05:26:42.123Z,98647.94
2022-12-25T05:27:48.815Z,98644.66
2022-12-25T05:28:56.885Z,98637.94
2022-12-25T05:30:00.356Z,98640.34
2022-12-25T05:31:03.842Z,98641.47
2022-12-25T05:32:07.390Z,98639.84
2022-12-25T05:33:10.596Z,98640.94
2022-12-25T05:34:13.775Z,98636.00
2022-12-25T05:35:16.913Z,98644.34
2022-12-25T05:36:20.607Z,98647.78
2022-12-25T05:37:24.045Z,98643.38
2022-12-25T05:38:27.512Z,98647.72
2022-12-25T05:39:30.725Z,98647.00
2022-12-25T05:40:35.160Z,98648.25
2022-12-25T05:41:38.437Z,98648.25
2022-12-25T05:42:47.046Z,98644.47
2022-12-25T05:43:53.975Z,98643.06
2022-12-25T05:44:57.300Z,98647.72
2022-12-25T05:46:07.948Z,98649.94
2022-12-25T05:47:11.380Z,98645.13
2022-12-25T05:48:14.735Z,98648.00
2022-12-25T05:49:17.848Z,98650.53
2022-12-25T05:50:21.040Z,98658.16
2022-12-25T05:51:24.283Z,98659.25
2022-12-25T05:52:34.725Z,98660.16
2022-12-25T05:53:38.273Z,98657.44
2022-12-25T05:54:41.445Z,98659.25
2022-12-25T05:55:44.719Z,98655.44
2022-12-25T05:56:48.119Z,98665.47
2022-12-25T05:57:51.290Z,98661.84
2022-12-25T05:58:54.780Z,98660.53
2022-12-25T05:59:58.083Z,98661.91
2022-12-25T06:01:01.734Z,98660.44
2022-12-25T06:02:05.048Z,98659.53
2022-12-25T06:03:08.688Z,98657.72
2022-12-25T06:04:14.984Z,98662.03
2022-12-25T06:05:18.107Z,98656.06
2022-12-25T06:06:21.395Z,98658.06
2022-12-25T06:07:24.587Z,98653.69
2022-12-25T06:08:27.789Z,98648.56
2022-12-25T06:09:30.870Z,98640.38
2022-12-25T06:10:34.189Z,98646.91
2022-12-25T06:11:37.594Z,98638.53
2022-12-25T06:12:40.949Z,98645.44
2022-12-25T06:13:44.166Z,98636.16
2022-12-25T06:14:47.403Z,98638.88
2022-12-25T06:15:50.579Z,98645.31
2022-12-25T06:16:54.529Z,98642.78
2022-12-25T06:18:00.764Z,98640.59
2022-12-25T06:19:05.207Z,98641.19
2022-12-25T06:20:09.269Z,98637.66
2022-12-25T06:21:15.040Z,98638.13
2022-12-25T06:22:18.135Z,98641.59
2022-12-25T06:23:21.627Z,98633.94
2022-12-25T06:24:24.809Z,98640.47
2022-12-25T06:25:28.136Z,98643.31
2022-12-25T06:26:31.472Z,98637.47
2022-12-25T06:27:34.603Z,98651.44
2022-12-25T06:28:37.875Z,98645.03
2022-12-25T06:29:41.219Z,98645.34
2022-12-25T06:30:44.271Z,98637.19
2022-12-25T06:31:47.539Z,98647.44
2022-12-25T06:32:50.669Z,98641.59
2022-12-25T06:33:53.853Z,98642.84
2022-12-25T06:34:57.237Z,98649.75
2022-12-25T06:36:00.433Z,98657.00
2022-12-25T06:37:04.715Z,98660.03
2022-12-25T06:38:07.962Z,98668.75
2022-12-25T06:39:11.271Z,98659.84
2022-12-25T06:40:14.709Z,98655.12
2022-12-25T06:41:22.076Z,98659.09
2022-12-25T06:42:25.428Z,98652.91
2022-12-25T06:43:29.037Z,98654.91
2022-12-25T06:44:34.064Z,98658.03
2022-12-25T06:45:37.192Z,98654.28
2022-12-25T06:46:40.589Z,98660.63
2022-12-25T06:47:43.989Z,98656.47
2022-12-25T06:48:50.261Z,98661.38
2022-12-25T06:49:53.376Z,98669.00
2022-12-25T06:51:02.190Z,98661.09
2022-12-25T06:52:09.146Z,98666.22
2022-12-25T06:53:12.948Z,98671.75
2022-12-25T06:54:16.167Z,98669.97
2022-12-25T06:55:19.348Z,98672.28
2022-12-25T06:56:25.201Z,98673.75
2022-12-25T06:57:28.401Z,98669.88
2022-12-25T06:58:36.108Z,98678.78
2022-12-25T06:59:39.404Z,98678.59
2022-12-25T07:00:43.156Z,98685.16
2022-12-25T07:01:50.040Z,98693.53
2022-12-25T07:02:53.452Z,98687.22
2022-12-25T07:04:03.412Z,98697.56
2022-12-25T07:05:06.991Z,98691.09
2022-12-25T07:06:10.194Z,98698.13
2022-12-25T07:07:13.622Z,98695.94
2022-12-25T07:08:17.072Z,98701.56
2022-12-25T07:09:20.355Z,98700.66
2022-12-25T07:10:24.067Z,98713.13
2022-12-25T07:11:27.279Z,98715.13
2022-12-25T07:12:30.588Z,98716.16
2022-12-25T07:13:38.251Z,98708.72
2022-12-25T07:14:47.882Z,98713.44
2022-12-25T07:16:02.604Z,98715.63
2022-12-25T07:17:06.397Z,98720.47
2022-12-25T07:18:09.559Z,98718.34
2022-12-25T07:19:12.877Z,98726.41
2022-12-25T07:20:16.638Z,98730.19
2022-12-25T07:21:21.865Z,98734.50
2022-12-25T07:22:25.057Z,98727.28
2022-12-25T07:23:28.191Z,98723.16
2022-12-25T07:24:31.416Z,98724.31
2022-12-25T07:25:37.357Z,98727.16
2022-12-25T07:26:41.087Z,98731.66
2022-12-25T07:27:44.387Z,98727.28
2022-12-25T07:28:47.552Z,98733.38
2022-12-25T07:29:50.933Z,98739.16
2022-12-25T07:30:54.100Z,98732.56
2022-12-25T07:31:57.489Z,98744.19
2022-12-25T07:33:00.553Z,98745.22
2022-12-25T07:34:03.909Z,98740.84
2022-12-25T07:35:07.197Z,98754.78
2022-12-25T07:36:12.808Z,98751.34
2022-12-25T07:37:16.449Z,98746.41
2022-12-25T07:38:22.939Z,98750.41
2022-12-25T07:39:26.278Z,98749.16
2022-12-25T07:40:29.631Z,98749.34
2022-12-25T07:41:33.304Z,98745.34
2022-12-25T07:42:36.467Z,98747.56
2022-12-25T07:43:39.686Z,98747.03
2022-12-25T07:44:42.858Z,98746.19
2022-12-25T07:45:46.045Z,98745.66
2022-12-25T07:46:49.348Z,98754.34
2022-12-25T07:47:55.060Z,98760.84
2022-12-25T07:48:58.547Z,98761.91
2022-12-25T07:50:01.849Z,98762.62
2022-12-25T07:51:08.254Z,98758.84
2022-12-25T07:52:11.462Z,98762.28
2022-12-25T07:53:14.631Z,98758.00
2022-12-25T07:54:17.836Z,98769.84
2022-12-25T07:55:20.960Z,98769.84
2022-12-25T07:56:26.192Z,98769.13
2022-12-25T07:57:30.031Z,98777.88
2022-12-25T07:58:33.882Z,98771.72
2022-12-25T07:59:37.039Z,98767.00
2022-12-25T08:00:40.327Z,98774.81
2022-12-25T08:01:47.128Z,98777.44
2022-12-25T08:02:51.331Z,98772.81
2022-12-25T08:03:57.360Z,98774.56
2022-12-25T08:05:01.941Z,98776.38
2022-12-25T08:06:09.995Z,98782.37
2022-12-25T08:07:13.096Z,98784.75
2022-12-25T08:08:16.383Z,98785.88
2022-12-25T08:09:19.599Z,98776.25
2022-12-25T08:10:22.630Z,98784.22
2022-12-25T08:11:25.801Z,98794.41
2022-12-25T08:12:28.956Z,98787.69
2022-12-25T08:13:33.073Z,98789.16
2022-12-25T08:14:36.043Z,98796.06
2022-12-25T08:15:39.329Z,98784.84
2022-12-25T08:16:42.756Z,98788.50
2022-12-25T08:17:47.078Z,98789.22
2022-12-25T08:18:50.235Z,98787.63
2022-12-25T08:19:53.745Z,98788.91
2022-12-25T08:20:57.310Z,98787.09
2022-12-25T08:22:04.136Z,98788.59
2022-12-25T08:23:07.584Z,98786.78
2022-12-25T08:24:11.123Z,98784.97
2022-12-25T08:25:16.233Z,98786.09
2022-12-25T08:26:22.394Z,98793.44
2022-12-25T08:27:25.638Z,98792.03
2022-12-25T08:28:30.587Z,98785.22
2022-12-25T08:29:34.147Z,98789.03
2022-12-25T08:30:41.361Z,98788.53
2022-12-25T08:31:46.651Z,98786.00
2022-12-25T08:32:50.333Z,98791.63
2022-12-25T08:33:56.447Z,98791.13
2022-12-25T08:34:59.593Z,98801.66
2022-12-25T08:36:07.430Z,98789.53
2022-12-25T08:37:10.814Z,98789.72
2022-12-25T08:38:15.085Z,98791.91
2022-12-25T08:39:18.268Z,98794.09
2022-12-25T08:40:21.736Z,98802.47
2022-12-25T08:41:24.877Z,98794.50
2022-12-25T08:42:28.080Z,98795.66
2022-12-25T08:43:31.611Z,98799.28
2022-12-25T08:44:34.738Z,98796.41
2022-12-25T08:45:37.835Z,98796.09
2022-12-25T08:46:41.242Z,98803.22
2022-12-25T08:47:44.366Z,98802.69
2022-12-25T08:48:52.145Z,98800.34
2022-12-25T08:49:55.339Z,98809.63
2022-12-25T08:50:58.824Z,98803.13
2022-12-25T08:52:02.297Z,98803.31
2022-12-25T08:53:05.884Z,98807.16
2022-12-25T08:54:09.546Z,98799.91
2022-12-25T08:55:12.804Z,98802.81
2022-12-25T08:56:16.670Z,98809.41
2022-12-25T08:57:20.133Z,98812.31
2022-12-25T08:58:23.169Z,98807.25
2022-12-25T08:59:30.182Z,98812.37
2022-12-25T09:00:33.850Z,98813.28
2022-12-25T09:01:37.766Z,98811.69
2022-12-25T09:02:41.599Z,98812.41
2022-12-25T09:03:45.583Z,98813.53
2022-12-25T09:04:48.843Z,98818.63
2022-12-25T09:05:57.108Z,98813.19
2022-12-25T09:07:00.513Z,98813.38
2022-12-25T09:08:03.932Z,98815.19
2022-12-25T09:09:07.258Z,98814.28
2022-12-25T09:10:11.147Z,98811.53
2022-12-25T09:11:15.963Z,98818.47
2022-12-25T09:12:19.315Z,98813.53
2022-12-25T09:13:22.551Z,98816.28
2022-12-25T09:14:25.695Z,98816.44
2022-12-25T09:15:30.154Z,98817.91
2022-12-25T09:16:33.463Z,98819.72
2022-12-25T09:17:36.622Z,98821.72
2022-12-25T09:18:40.457Z,98819.53
2022-12-25T09:19:45.084Z,98821.53
2022-12-25T09:20:48.203Z,98817.19
2022-12-25T09:21:51.397Z,98819.25
2022-12-25T09:22:54.745Z,98823.78
2022-12-25T09:23:57.835Z,98827.66
2022-12-25T09:25:01.016Z,98836.63
2022-12-25T09:26:06.576Z,98835.53
2022-12-25T09:27:13.397Z,98825.00
2022-12-25T09:28:16.525Z,98832.12
2022-12-25T09:29:19.801Z,98835.41
2022-12-25T09:30:23.479Z,98829.41
2022-12-25T09:31:27.564Z,98826.91
2022-12-25T09:32:30.991Z,98825.47
2022-12-25T09:33:34.788Z,98820.75
2022-12-25T09:34:38.057Z,98829.19
2022-12-25T09:35:42.785Z,98824.09
2022-12-25T09:36:46.108Z,98826.81
2022-12-25T09:37:49.360Z,98835.75
2022-12-25T09:38:53.131Z,98825.00
2022-12-25T09:39:57.806Z,98834.50
2022-12-25T09:41:08.108Z,98827.94
2022-12-25T09:42:23.112Z,98833.44
2022-12-25T09:43:29.084Z,98825.94
2022-12-25T09:44:37.356Z,98831.78
2022-12-25T09:45:40.472Z,98831.22
2022-12-25T09:47:02.282Z,98833.41
2022-12-25T09:48:08.791Z,98832.50
2022-12-25T09:49:27.181Z,98840.34
2022-12-25T09:51:15.273Z,98831.06
2022-12-25T09:52:26.851Z,98834.69
2022-12-25T09:53:40.497Z,98831.75
2022-12-25T09:55:19.816Z,98832.66
2022-12-25T09:56:28.751Z,98844.50
2022-12-25T09:57:33.525Z,98837.22
2022-12-25T09:58:37.235Z,98835.22
2022-12-25T09:59:44.346Z,98837.38
2022-12-25T10:01:02.013Z,98843.97
2022-12-25T10:02:26.962Z,98837.00
2022-12-25T10:03:37.308Z,98842.28
2022-12-25T10:04:46.649Z,98835.87
2022-12-25T10:06:32.410Z,98834.19
2022-12-25T10:07:55.859Z,98829.06
2022-12-25T10:09:08.632Z,98828.69
2022-12-25T10:10:23.734Z,98834.34
2022-12-25T10:12:10.131Z,98831.56
2022-12-25T10:13:45.677Z,98828.59
2022-12-25T10:15:18.239Z,98814.72
2022-12-25T10:16:50.612Z,98822.38
2022-12-25T10:18:37.674Z,98816.53
2022-12-25T10:19:46.713Z,98815.75
2022-12-25T10:20:59.279Z,98822.16
2022-12-25T10:22:11.653Z,98822.31
2022-12-25T10:23:23.045Z,98819.37
2022-12-25T10:24:44.866Z,98821.09
2022-12-25T10:25:48.675Z,98823.09
2022-12-25T10:26:55.119Z,98809.69
2022-12-25T10:28:04.282Z,98813.50
2022-12-25T10:29:16.799Z,98810.78
2022-12-25T10:30:23.213Z,98808.75
2022-12-25T10:31:28.872Z,98814.81
2022-12-25T10:32:32.131Z,98815.88
2022-12-25T10:33:35.362Z,98816.25
2022-12-25T10:34:41.421Z,98814.81
2022-12-25T10:35:45.075Z,98813.50
2022-12-25T10:36:48.583Z,98812.97
2022-12-25T10:37:59.276Z,98816.59
2022-12-25T10:39:02.684Z,98810.72
2022-12-25T10:40:23.570Z,98818.00
2022-12-25T10:41:43.367Z,98807.75
2022-12-25T10:42:50.447Z,98811.78
2022-12-25T10:43:56.179Z,98809.56
2022-12-25T10:45:03.957Z,98808.41
2022-12-25T10:46:12.615Z,98801.47
2022-12-25T10:47:25.185Z,98805.09
2022-12-25T10:48:33.391Z,98802.53
2022-12-25T10:49:38.948Z,98807.47
2022-12-25T10:50:45.172Z,98816.78
2022-12-25T10:51:48.743Z,98816.38
2022-12-25T10:53:09.669Z,98812.00
2022-12-25T10:54:30.438Z,98817.66
2022-12-25T10:55:33.939Z,98805.72
2022-12-25T10:56:37.219Z,98811.94
2022-12-25T10:57:47.372Z,98811.37
2022-12-25T10:58:50.740Z,98817.03
2022-12-25T10:59:56.789Z,98805.31
2022-12-25T11:01:03.538Z,98811.16
2022-12-25T11:02:27.974Z,98800.47
2022-12-25T11:03:52.289Z,98800.47
2022-12-25T11:05:06.478Z,98804.87
2022-12-25T11:06:23.903Z,98800.28
2022-12-25T11:07:27.681Z,98801.09
2022-12-25T11:08:33.915Z,98792.62
2022-12-25T11:09:37.525Z,98792.78
2022-12-25T11:10:44.634Z,98789.72
2022-12-25T11:11:48.540Z,98785.53
2022-12-25T11:12:52.821Z,98782.06
2022-12-25T11:13:59.732Z,98779.47
2022-12-25T11:15:28.740Z,98778.00
2022-12-25T11:16:41.248Z,98773.25
2022-12-25T11:17:49.911Z,98779.94
2022-12-25T11:18:55.023Z,98782.19
2022-12-25T11:20:00.345Z,98785.09
2022-12-25T11:21:29.235Z,98777.19
2022-12-25T11:22:34.187Z,98784.31
2022-12-25T11:23:48.798Z,98778.47
2022-12-25T11:24:53.410Z,98778.16
2022-12-25T11:25:56.711Z,98778.16
2022-12-25T11:27:09.305Z,98780.91
2022-12-25T11:28:13.814Z,98778.56
2022-12-25T11:29:49.664Z,98774.53
2022-12-25T11:31:19.553Z,98770.81
2022-12-25T11:32:32.386Z,98776.22
2022-12-25T11:33:51.104Z,98772.59
2022-12-25T11:34:54.325Z,98774.37
2022-12-25T11:36:02.572Z,98766.28
2022-12-25T11:37:13.623Z,98770.16
2022-12-25T11:38:17.096Z,98776.13
2022-12-25T11:39:42.353Z,98766.41
2022-12-25T11:40:51.871Z,98776.88
2022-12-25T11:42:19.928Z,98774.59
2022-12-25T11:43:34.430Z,98768.75
2022-12-25T11:44:59.163Z,98768.88
2022-12-25T11:46:21.267Z,98773.25
2022-12-25T11:47:27.229Z,98763.78
2022-12-25T11:48:36.934Z,98775.91
2022-12-25T11:49:52.137Z,98773.56
2022-12-25T11:52:13.960Z,98768.22
2022-12-25T11:53:25.674Z,98760.56
2022-12-25T11:54:33.777Z,98767.66
2022-12-25T11:55:55.184Z,98764.56
2022-12-25T11:57:04.385Z,98767.19
2022-12-25T11:58:40.136Z,98768.53
2022-12-25T12:00:10.593Z,98766.09
2022-12-25T12:01:19.569Z,98767.28
2022-12-25T12:02:30.541Z,98766.72
2022-12-25T12:03:43.981Z,98766.00
2022-12-25T12:04:51.236Z,98763.84
2022-12-25T12:06:00.249Z,98761.72
2022-12-25T12:07:24.896Z,98758.63
2022-12-25T12:08:28.529Z,98758.50
2022-12-25T12:09:44.114Z,98755.84
2022-12-25T12:11:19.075Z,98764.72
2022-12-25T12:12:34.738Z,98762.97
2022-12-25T12:14:00.076Z,98760.22
2022-12-25T12:15:21.436Z,98758.91
2022-12-25T12:16:25.933Z,98762.53
2022-12-25T12:17:29.076Z,98766.91
2022-12-25T12:18:34.145Z,98760.53
2022-12-25T12:19:39.894Z,98761.09
2022-12-25T12:20:43.044Z,98767.03
2022-12-25T12:21:49.880Z,98766.19
2022-12-25T12:22:54.103Z,98767.31
2022-12-25T12:24:21.620Z,98764.16
2022-12-25T12:25:25.480Z,98767.03
2022-12-25T12:26:35.975Z,98763.41
2022-12-25T12:27:41.279Z,98764.28
2022-12-25T12:28:47.578Z,98763.38
2022-12-25T12:29:55.978Z,98764.81
2022-12-25T12:31:05.931Z,98764.38
2022-12-25T12:32:29.761Z,98764.94
2022-12-25T12:33:39.341Z,98775.06
2022-12-25T12:34:50.519Z,98768.69
2022-12-25T12:35:54.031Z,98775.53
2022-12-25T12:37:04.648Z,98767.28
2022-12-25T12:38:23.556Z,98763.81
2022-12-25T12:39:35.261Z,98763.97
2022-12-25T12:40:43.567Z,98762.25
2022-12-25T12:41:49.528Z,98761.84
2022-12-25T12:42:52.896Z,98760.13
2022-12-25T12:44:03.969Z,98765.53
2022-12-25T12:45:17.815Z,98769.62
2022-12-25T12:46:30.915Z,98771.34
2022-12-25T12:47:50.299Z,98779.47
2022-12-25T12:49:07.186Z,98769.97
2022-12-25T12:50:40.176Z,98772.72
2022-12-25T12:51:43.345Z,98773.63
2022-12-25T12:52:46.630Z,98779.47
2022-12-25T12:53:49.719Z,98776.00
2022-12-25T12:55:03.038Z,98768.72
2022-12-25T12:56:16.969Z,98779.13
2022-12-25T12:57:33.080Z,98778.53
2022-12-25T12:58:40.625Z,98776.38
2022-12-25T12:59:47.076Z,98781.87
2022-12-25T13:01:01.184Z,98779.97
2022-12-25T13:02:34.765Z,98780.53
2022-12-25T13:03:56.752Z,98776.78
2022-12-25T13:05:18.508Z,98778.34
2022-12-25T13:06:24.972Z,98778.06
2022-12-25T13:07:27.929Z,98782.09
2022-12-25T13:08:51.106Z,98778.19
2022-12-25T13:10:04.251Z,98786.84
2022-12-25T13:11:27.703Z,98789.75
2022-12-25T13:12:31.153Z,98783.94
2022-12-25T13:13:42.407Z,98784.34
2022-12-25T13:14:48.327Z,98781.47
2022-12-25T13:15:52.696Z,98782.59
2022-12-25T13:17:02.311Z,98781.87
2022-12-25T13:18:13.140Z,98778.25
2022-12-25T13:19:22.490Z,98779.84
2022-12-25T13:20:35.145Z,98779.13
2022-12-25T13:21:38.664Z,98776.63
2022-12-25T13:22:43.524Z,98776.47
2022-12-25T13:23:48.784Z,98777.47
2022-12-25T13:24:57.324Z,98771.09
2022-12-25T13:26:07.365Z,98771.34
2022-12-25T13:27:26.476Z,98769.94
2022-12-25T13:28:32.315Z,98778.34
2022-12-25T13:29:38.362Z,98778.66
2022-12-25T13:30:41.835Z,98776.34
2022-12-25T13:31:45.157Z,98779.09
2022-12-25T13:32:49.689Z,98776.63
2022-12-25T13:34:01.832Z,98778.97
2022-12-25T13:35:12.131Z,98781.13
2022-12-25T13:36:15.881Z,98778.97